Rockaway, Oregon
Current Conditions -  °F | °C
As of 8:15 AM on Thursday 23 Oct 2014 (Local Time) from KTMK Reporting Station
Overcast Overcast  
Wind Chill: 12°   Ceiling: 7000
Heat Index: 12°   Visibility: 10mi
Dew Point: 11°   Wind: 6mph
Humidity: 94%   Direction: 140°SE
Pressure: 29.81"   Gusts: NA
Location:  45.6132°N, 123.654°W
Report Text: KTMK 231515Z AUTO 14005KT 10SM OVC070 12/11 A2981 RMK AO2
Loading
Personal Weather Stations






























Interactive Weather Map
Tropical Storm Tracking
New forecast layout! Learn more

10-Day Weather Forecast

Advertisements
Track Severe Weather on mobile